Time;durP1;ratioP1;P1;durP2;ratioP2;P2;SDS_P1;SDS_P2;PMS_P1;PMS_P2;Temp;Humidity;BMP_temperature;BMP_pressure;BME280_temperature;BME280_humidity;BME280_pressure;Samples;Min_cycle;Max_cycle;Signal;HPM_P1;HPM_P2
2022/10/20 00:01:13;;;;;;;1999.90;999.90;;;;;;;11.59;100.00;94616.13;5117573;28;20202;-63
2022/10/20 00:03:39;;;;;;;1999.90;999.90;;;;;;;11.65;100.00;94608.97;5117833;28;20206;-63
2022/10/20 00:06:16;;;;;;;1999.90;999.90;;;;;;;11.74;100.00;94598.19;5117455;28;20185;-75
2022/10/20 00:08:43;;;;;;;1999.90;999.90;;;;;;;11.73;100.00;94597.41;5118389;28;20183;-61
2022/10/20 00:11:09;;;;;;;1999.90;999.90;;;;;;;11.77;100.00;94597.34;5117528;28;20177;-61
2022/10/20 00:13:36;;;;;;;1999.90;999.90;;;;;;;11.80;100.00;94599.22;5117334;28;20186;-62
2022/10/20 00:16:02;;;;;;;1999.90;999.90;;;;;;;11.80;100.00;94591.00;5117187;28;20169;-62
2022/10/20 00:18:27;;;;;;;1999.90;999.90;;;;;;;11.84;100.00;94583.47;5117310;28;20172;-63
2022/10/20 00:20:53;;;;;;;1999.90;999.90;;;;;;;11.90;100.00;94579.00;5117818;28;20179;-62
2022/10/20 00:23:19;;;;;;;1999.90;999.90;;;;;;;11.88;100.00;94578.69;5117192;28;20204;-61
2022/10/20 00:25:44;;;;;;;1999.90;999.90;;;;;;;11.93;100.00;94581.66;5117189;28;20236;-64
2022/10/20 00:28:10;;;;;;;1999.90;999.90;;;;;;;11.96;100.00;94574.56;5116888;28;20231;-64
2022/10/20 00:30:36;;;;;;;1999.90;999.90;;;;;;;11.97;100.00;94570.59;5116857;28;20189;-65
2022/10/20 00:33:03;;;;;;;1999.90;999.90;;;;;;;12.00;100.00;94558.81;5116757;28;20174;-65
2022/10/20 00:35:29;;;;;;;1999.90;999.90;;;;;;;12.03;100.00;94547.00;5117094;28;20188;-64
2022/10/20 00:37:55;;;;;;;1999.90;999.90;;;;;;;12.01;100.00;94558.38;5117169;28;20174;-65
2022/10/20 00:40:20;;;;;;;1999.90;999.90;;;;;;;12.00;100.00;94548.63;5116839;28;20181;-64
2022/10/20 00:42:47;;;;;;;1999.90;999.90;;;;;;;12.04;100.00;94532.09;5116896;28;20237;-65
2022/10/20 00:45:21;;;;;;;1999.90;999.90;;;;;;;12.04;100.00;94530.16;5116638;28;20204;-61
2022/10/20 00:47:51;;;;;;;1999.90;999.90;;;;;;;12.00;100.00;94504.84;5117371;28;20198;-60
2022/10/20 00:50:23;;;;;;;1999.90;999.90;;;;;;;12.04;100.00;94491.84;5116747;28;20175;-59
2022/10/20 00:52:50;;;;;;;1999.90;999.90;;;;;;;12.03;100.00;94486.78;5116791;28;20190;-60
2022/10/20 00:55:21;;;;;;;1999.90;999.90;;;;;;;11.98;100.00;94479.88;5116320;28;20178;-59
2022/10/20 00:57:49;;;;;;;1999.90;999.90;;;;;;;12.01;100.00;94462.59;5117292;28;20180;-59
2022/10/20 01:00:14;;;;;;;1999.90;999.90;;;;;;;11.94;100.00;94460.06;5116542;28;20234;-59
2022/10/20 01:02:40;;;;;;;1999.90;999.90;;;;;;;11.96;100.00;94449.47;5116635;28;20193;-76
2022/10/20 01:05:09;;;;;;;1999.90;999.90;;;;;;;11.94;100.00;94453.81;5116167;28;20224;-60
2022/10/20 01:07:34;;;;;;;1999.90;999.90;;;;;;;12.01;100.00;94442.66;5116476;28;20247;-60
2022/10/20 01:10:01;;;;;;;1999.90;999.90;;;;;;;12.00;100.00;94439.19;5116040;28;20174;-61
2022/10/20 01:12:41;;;;;;;1999.90;999.90;;;;;;;12.02;100.00;94433.28;5117114;28;20188;-60
2022/10/20 01:15:41;;;;;;;1999.90;999.90;;;;;;;12.09;100.00;94419.38;5116598;28;20175;-60
2022/10/20 01:18:20;;;;;;;1999.90;999.90;;;;;;;12.02;100.00;94414.13;5115948;28;20176;-60
2022/10/20 01:21:04;;;;;;;1999.90;999.90;;;;;;;11.93;100.00;94414.75;5116812;28;20175;-60
2022/10/20 01:23:57;;;;;;;1999.90;999.90;;;;;;;11.90;100.00;94403.91;5116749;28;20251;-67
2022/10/20 01:26:40;;;;;;;1999.90;999.90;;;;;;;11.86;100.00;94416.94;5116554;28;20175;-66
2022/10/20 01:29:15;;;;;;;1999.90;999.90;;;;;;;11.84;100.00;94397.47;5115811;28;20265;-66
2022/10/20 01:31:47;;;;;;;1999.90;999.90;;;;;;;11.95;100.00;94403.38;5115747;28;20261;-65
2022/10/20 01:34:12;;;;;;;1999.90;999.90;;;;;;;11.96;100.00;94402.94;5116593;28;20174;-65
2022/10/20 01:37:00;;;;;;;1999.90;999.90;;;;;;;11.93;100.00;94401.09;5115871;28;20246;-67
2022/10/20 01:39:39;;;;;;;1999.90;999.90;;;;;;;12.01;100.00;94390.69;5078152;28;20181;-64
2022/10/20 01:42:11;;;;;;;1999.90;999.90;;;;;;;11.95;100.00;94387.72;5115690;28;20168;-62
2022/10/20 01:44:38;;;;;;;1999.90;999.90;;;;;;;11.91;100.00;94397.25;5115849;28;20169;-61
2022/10/20 01:47:05;;;;;;;1999.90;999.90;;;;;;;11.85;100.00;94382.56;5115689;28;20202;-62
2022/10/20 01:49:30;;;;;;;1999.90;999.90;;;;;;;11.81;100.00;94387.38;5116192;28;20177;-62
2022/10/20 01:51:56;;;;;;;1999.90;999.90;;;;;;;11.79;100.00;94385.09;5115143;28;20169;-62
2022/10/20 01:54:25;;;;;;;1999.90;999.90;;;;;;;11.75;100.00;94378.16;5115716;28;20177;-61
2022/10/20 01:57:28;;;;;;;1999.90;999.90;;;;;;;11.80;100.00;94366.72;5115435;28;20204;-61
2022/10/20 02:00:03;;;;;;;1999.90;999.90;;;;;;;11.77;100.00;94362.09;5112837;28;20186;-70
2022/10/20 02:02:53;;;;;;;1999.90;999.90;;;;;;;11.81;100.00;94368.25;5115247;28;20201;-71
2022/10/20 02:05:46;;;;;;;1999.90;999.90;;;;;;;11.72;100.00;94360.66;5116010;28;20200;-69
2022/10/20 02:08:36;;;;;;;1999.90;999.90;;;;;;;11.74;100.00;94369.22;5115079;28;20212;-69
2022/10/20 02:11:05;;;;;;;1999.90;999.90;;;;;;;11.73;100.00;94364.19;5115162;28;20240;-69
2022/10/20 02:13:34;;;;;;;1999.90;999.90;;;;;;;11.63;100.00;94354.31;5115460;28;20182;-68
2022/10/20 02:16:03;;;;;;;1999.90;999.90;;;;;;;11.71;100.00;94359.16;5115138;28;20200;-69
2022/10/20 02:18:33;;;;;;;1999.90;999.90;;;;;;;11.67;100.00;94360.44;5115103;28;20229;-59
2022/10/20 02:21:02;;;;;;;1999.90;999.90;;;;;;;11.68;100.00;94353.75;5115036;28;20171;-59
2022/10/20 02:23:30;;;;;;;1999.90;999.90;;;;;;;11.64;100.00;94342.16;5114853;28;20204;-58
2022/10/20 02:25:59;;;;;;;1999.90;999.90;;;;;;;11.60;100.00;94341.47;5115025;28;20273;-59
2022/10/20 02:28:27;;;;;;;1999.90;999.90;;;;;;;11.63;100.00;94337.91;5114646;28;20278;-58
2022/10/20 02:30:54;;;;;;;1999.90;999.90;;;;;;;11.60;100.00;94339.50;5114969;28;20180;-58
2022/10/20 02:33:20;;;;;;;1999.90;999.90;;;;;;;11.65;100.00;94332.78;5114773;28;20185;-60
2022/10/20 02:35:54;;;;;;;1999.90;999.90;;;;;;;11.51;100.00;94330.44;5114751;28;20176;-61
2022/10/20 02:38:20;;;;;;;1999.90;999.90;;;;;;;11.51;100.00;94322.22;5115332;28;20225;-68
2022/10/20 02:40:45;;;;;;;1999.90;999.90;;;;;;;11.46;100.00;94325.47;5114617;28;20177;-66
2022/10/20 02:43:11;;;;;;;1999.90;999.90;;;;;;;11.46;100.00;94312.59;5114614;28;20291;-66
2022/10/20 02:45:36;;;;;;;1999.90;999.90;;;;;;;11.52;100.00;94310.06;5114149;28;20192;-65
2022/10/20 02:48:02;;;;;;;1999.90;999.90;;;;;;;11.39;100.00;94320.22;5115009;28;20180;-66
2022/10/20 02:50:27;;;;;;;1999.90;999.90;;;;;;;11.42;100.00;94311.16;5115150;28;20186;-65
2022/10/20 02:52:53;;;;;;;1999.90;999.90;;;;;;;11.44;100.00;94314.22;5114809;28;20169;-60
2022/10/20 02:55:18;;;;;;;1999.90;999.90;;;;;;;11.42;100.00;94316.63;5114396;28;20200;-59
2022/10/20 02:57:43;;;;;;;1999.90;999.90;;;;;;;11.43;100.00;94313.44;5114200;28;20205;-60
2022/10/20 03:00:09;;;;;;;1999.90;999.90;;;;;;;11.50;100.00;94307.00;5113975;28;20169;-59
2022/10/20 03:02:34;;;;;;;1999.90;999.90;;;;;;;11.41;100.00;94304.94;5114199;28;20314;-59
2022/10/20 03:05:00;;;;;;;1999.90;999.90;;;;;;;11.39;100.00;94309.28;5115006;28;20202;-59
2022/10/20 03:07:25;;;;;;;1999.90;999.90;;;;;;;11.43;100.00;94297.03;5114782;28;20189;-59
2022/10/20 03:09:51;;;;;;;1999.90;999.90;;;;;;;11.46;100.00;94300.88;5114216;28;20247;-65
2022/10/20 03:12:16;;;;;;;1999.90;999.90;;;;;;;11.40;100.00;94302.63;5113971;28;20185;-62
2022/10/20 03:14:41;;;;;;;1999.90;999.90;;;;;;;11.37;100.00;94312.44;5114678;28;20260;-58
2022/10/20 03:17:08;;;;;;;1999.90;999.90;;;;;;;11.37;100.00;94303.50;5114689;28;20201;-58
2022/10/20 03:19:33;;;;;;;1999.90;999.90;;;;;;;11.34;100.00;94307.09;5114416;28;20169;-58
2022/10/20 03:21:59;;;;;;;1999.90;999.90;;;;;;;11.38;100.00;94299.56;5114093;28;20180;-60
2022/10/20 03:24:24;;;;;;;1999.90;999.90;;;;;;;11.32;100.00;94301.28;5114057;28;20182;-58
2022/10/20 03:26:49;;;;;;;1999.90;999.90;;;;;;;11.41;100.00;94304.16;5114139;28;20176;-58
2022/10/20 03:29:15;;;;;;;1999.90;999.90;;;;;;;11.40;100.00;94305.38;5113738;28;20225;-70
2022/10/20 03:31:40;;;;;;;1999.90;999.90;;;;;;;11.38;100.00;94311.25;5113983;28;20172;-58
2022/10/20 03:34:05;;;;;;;1999.90;999.90;;;;;;;11.42;100.00;94308.41;5113890;28;20262;-58
2022/10/20 03:36:31;;;;;;;1999.90;999.90;;;;;;;11.45;100.00;94304.81;5113956;28;20175;-58
2022/10/20 03:38:56;;;;;;;1999.90;999.90;;;;;;;11.37;100.00;94314.44;5113673;28;20165;-58
2022/10/20 03:41:22;;;;;;;1999.90;999.90;;;;;;;11.38;100.00;94315.94;5113841;28;20177;-58
2022/10/20 03:43:47;;;;;;;1999.90;999.90;;;;;;;11.33;100.00;94308.28;5114340;28;20204;-58
2022/10/20 03:46:12;;;;;;;1999.90;999.90;;;;;;;11.41;100.00;94306.88;5113777;28;20175;-59
2022/10/20 03:48:39;;;;;;;1999.90;999.90;;;;;;;11.41;100.00;94304.16;5113491;28;20165;-70
2022/10/20 03:51:06;;;;;;;1999.90;999.90;;;;;;;11.36;100.00;94302.72;5114324;28;20178;-74
2022/10/20 03:53:32;;;;;;;1999.90;999.90;;;;;;;11.33;100.00;94302.84;5114330;28;20237;-71
2022/10/20 03:55:57;;;;;;;1999.90;999.90;;;;;;;11.34;100.00;94304.34;5113575;28;20178;-71
2022/10/20 03:58:23;;;;;;;1999.90;999.90;;;;;;;11.40;100.00;94294.44;5114173;28;20187;-74
2022/10/20 04:00:48;;;;;;;1999.90;999.90;;;;;;;11.35;100.00;94294.94;5113739;28;20173;-72
2022/10/20 04:03:14;;;;;;;1999.90;999.90;;;;;;;11.31;100.00;94302.50;5113965;28;20309;-72
2022/10/20 04:05:40;;;;;;;1999.90;999.90;;;;;;;11.38;100.00;94296.81;5113738;28;20200;-61
2022/10/20 04:08:05;;;;;;;1999.90;999.90;;;;;;;11.35;100.00;94301.19;5113553;28;20177;-66
2022/10/20 04:10:30;;;;;;;1999.90;999.90;;;;;;;11.33;100.00;94295.38;5113805;28;20260;-62
2022/10/20 04:12:57;;;;;;;1999.90;999.90;;;;;;;11.35;100.00;94294.94;5113901;28;20174;-62
2022/10/20 04:15:23;;;;;;;1999.90;999.90;;;;;;;11.32;100.00;94295.81;5113551;28;20179;-61
2022/10/20 04:17:48;;;;;;;1999.90;999.90;;;;;;;11.36;100.00;94301.97;5113588;28;20164;-62
2022/10/20 04:20:13;;;;;;;1999.90;999.90;;;;;;;11.36;100.00;94302.72;5113592;28;20263;-61
2022/10/20 04:22:39;;;;;;;1999.90;999.90;;;;;;;11.41;100.00;94304.16;5113380;28;20290;-59
2022/10/20 04:25:06;;;;;;;1999.90;999.90;;;;;;;11.38;100.00;94299.56;5113479;28;20176;-64
2022/10/20 04:27:31;;;;;;;1999.90;999.90;;;;;;;11.42;100.00;94295.53;5112812;28;20187;-58
2022/10/20 04:29:56;;;;;;;1999.90;999.90;;;;;;;11.41;100.00;94294.00;5113669;28;20176;-58
2022/10/20 04:32:22;;;;;;;1999.90;999.90;;;;;;;11.45;100.00;94288.41;5117274;28;20169;-58
2022/10/20 04:34:47;;;;;;;1999.90;999.90;;;;;;;11.51;100.00;94281.22;5117309;28;20176;-58
2022/10/20 04:37:12;;;;;;;1999.90;999.90;;;;;;;11.45;100.00;94283.72;5116726;28;20181;-58
2022/10/20 04:39:38;;;;;;;1999.90;999.90;;;;;;;11.39;100.00;94276.47;5116897;28;20173;-58
2022/10/20 04:42:03;;;;;;;1999.90;999.90;;;;;;;11.36;100.00;94274.63;5117308;28;20206;-62
2022/10/20 04:44:28;;;;;;;1999.90;999.90;;;;;;;11.43;100.00;94275.19;5116862;28;20174;-59
2022/10/20 04:46:54;;;;;;;1999.90;999.90;;;;;;;11.43;100.00;94258.78;5116896;28;20173;-64
2022/10/20 04:49:19;;;;;;;1999.90;999.90;;;;;;;11.37;100.00;94265.97;5116733;28;20246;-64
2022/10/20 04:51:45;;;;;;;1999.90;999.90;;;;;;;11.36;100.00;94258.22;5116461;28;20184;-65
2022/10/20 04:54:10;;;;;;;1999.90;999.90;;;;;;;11.21;100.00;94257.09;5116758;28;20180;-65
2022/10/20 04:56:35;;;;;;;1999.90;999.90;;;;;;;11.14;100.00;94268.25;5116530;28;20179;-65
2022/10/20 04:59:01;;;;;;;1999.90;999.90;;;;;;;11.17;100.00;94270.09;5117243;28;20172;-64
2022/10/20 05:01:28;;;;;;;1999.90;999.90;;;;;;;11.21;100.00;94273.50;5116640;28;20180;-72
2022/10/20 05:03:54;;;;;;;1999.90;999.90;;;;;;;11.18;100.00;94269.66;5116157;28;20350;-58
2022/10/20 05:06:26;;;;;;;1999.90;999.90;;;;;;;11.20;100.00;94255.56;5116595;28;20212;-58
2022/10/20 05:08:53;;;;;;;1999.90;999.90;;;;;;;11.24;100.00;94258.97;5116564;28;20183;-58
2022/10/20 05:11:21;;;;;;;1999.90;999.90;;;;;;;11.15;100.00;94254.13;5116321;28;20181;-58
2022/10/20 05:13:46;;;;;;;1999.90;999.90;;;;;;;11.18;100.00;94258.00;5116325;28;20174;-58
2022/10/20 05:16:12;;;;;;;1999.90;999.90;;;;;;;11.21;100.00;94254.38;5115967;28;20179;-58
2022/10/20 05:18:39;;;;;;;1999.90;999.90;;;;;;;11.11;100.00;94247.25;5116005;28;20183;-59
2022/10/20 05:21:11;;;;;;;1999.90;999.90;;;;;;;11.08;100.00;94248.13;5116097;28;20181;-58
2022/10/20 05:23:38;;;;;;;1999.90;999.90;;;;;;;11.05;100.00;94248.97;5116015;28;20295;-60
2022/10/20 05:26:07;;;;;;;1999.90;999.90;;;;;;;10.98;100.00;94243.72;5116629;28;20179;-60
2022/10/20 05:28:32;;;;;;;1999.90;999.90;;;;;;;11.01;100.00;94251.06;5116984;28;20248;-60
2022/10/20 05:31:05;;;;;;;1999.90;999.90;;;;;;;11.04;100.00;94244.72;5116405;28;20168;-60
2022/10/20 05:33:31;;;;;;;1999.90;999.90;;;;;;;10.95;100.00;94250.03;5116004;28;20173;-60
2022/10/20 05:35:57;;;;;;;1999.90;999.90;;;;;;;10.94;100.00;94259.44;5116111;28;20189;-60
2022/10/20 05:38:22;;;;;;;1999.90;999.90;;;;;;;10.94;100.00;94253.97;5116217;28;20172;-61
2022/10/20 05:40:47;;;;;;;1999.90;999.90;;;;;;;10.99;100.00;94256.94;5115659;28;20180;-60
2022/10/20 05:43:13;;;;;;;1999.90;999.90;;;;;;;10.89;100.00;94262.72;5114596;28;20207;-59
2022/10/20 05:45:38;;;;;;;1999.90;999.90;;;;;;;10.87;100.00;94271.34;5115527;28;20247;-60
2022/10/20 05:48:04;;;;;;;1999.90;999.90;;;;;;;10.95;100.00;94260.97;5115482;28;20179;-62
2022/10/20 05:50:30;;;;;;;1999.90;999.90;;;;;;;10.93;100.00;94258.66;5115880;28;20181;-60
2022/10/20 05:52:55;;;;;;;1999.90;999.90;;;;;;;10.92;100.00;94261.84;5115613;28;20176;-60
2022/10/20 05:55:21;;;;;;;1999.90;999.90;;;;;;;10.89;100.00;94263.47;5115170;28;20180;-60
2022/10/20 05:57:48;;;;;;;1999.90;999.90;;;;;;;10.98;100.00;94254.66;5115174;28;20220;-63
2022/10/20 06:00:15;;;;;;;1999.90;999.90;;;;;;;10.97;100.00;94253.13;5115283;28;20194;-58
2022/10/20 06:02:40;;;;;;;1999.90;999.90;;;;;;;10.88;100.00;94261.94;5114984;28;20223;-58
2022/10/20 06:05:06;;;;;;;1999.90;999.90;;;;;;;10.89;100.00;94260.00;5115066;28;20199;-59
2022/10/20 06:07:31;;;;;;;1999.90;999.90;;;;;;;10.89;100.00;94257.25;5115578;28;20229;-58
2022/10/20 06:09:56;;;;;;;1999.90;999.90;;;;;;;10.97;100.00;94264.06;5115174;28;20174;-58
2022/10/20 06:12:22;;;;;;;1999.90;999.90;;;;;;;10.99;100.00;94261.63;5114828;28;20229;-58
2022/10/20 06:14:47;;;;;;;1999.90;999.90;;;;;;;10.96;100.00;94262.53;5115504;28;20164;-59
2022/10/20 06:17:12;;;;;;;1999.90;999.90;;;;;;;10.92;100.00;94268.06;5114923;28;20179;-59
2022/10/20 06:19:38;;;;;;;1999.90;999.90;;;;;;;10.98;100.00;94271.03;5114609;28;20288;-59
2022/10/20 06:22:03;;;;;;;1999.90;999.90;;;;;;;10.87;100.00;94259.63;5114947;28;20221;-60
2022/10/20 06:24:28;;;;;;;1999.90;999.90;;;;;;;10.93;100.00;94252.47;5114805;28;20176;-60
2022/10/20 06:26:54;;;;;;;1999.90;999.90;;;;;;;10.92;100.00;94259.13;5115301;28;20183;-60
2022/10/20 06:29:19;;;;;;;1999.90;999.90;;;;;;;10.77;100.00;94274.34;5114311;28;20259;-59
2022/10/20 06:31:47;;;;;;;1999.90;999.90;;;;;;;10.72;100.00;94275.66;5114758;28;20199;-60
2022/10/20 06:34:19;;;;;;;1999.90;999.90;;;;;;;10.72;100.00;94281.13;5114673;28;20183;-60
2022/10/20 06:36:45;;;;;;;1999.90;999.90;;;;;;;10.82;100.00;94273.84;5115413;28;20204;-59
2022/10/20 06:39:14;;;;;;;1999.90;999.90;;;;;;;10.83;100.00;94283.56;5115042;28;20213;-60
2022/10/20 06:41:40;;;;;;;1999.90;999.90;;;;;;;10.80;100.00;94278.94;5114286;28;20179;-59
2022/10/20 06:44:06;;;;;;;1999.90;999.90;;;;;;;10.90;100.00;94275.16;5114164;28;20200;-59
2022/10/20 06:46:34;;;;;;;1999.90;999.90;;;;;;;10.87;100.00;94273.28;5114121;28;20192;-59
2022/10/20 06:49:02;;;;;;;1999.90;999.90;;;;;;;10.83;100.00;94286.28;5114418;28;20172;-59
2022/10/20 06:51:28;;;;;;;1999.90;999.90;;;;;;;10.76;100.00;94281.00;5114593;28;20225;-66
2022/10/20 06:53:53;;;;;;;1999.90;999.90;;;;;;;10.84;100.00;94272.19;5114019;28;20176;-58
2022/10/20 06:56:23;;;;;;;1999.90;999.90;;;;;;;10.83;100.00;94269.91;5114451;28;20215;-58
2022/10/20 06:58:50;;;;;;;1999.90;999.90;;;;;;;10.75;100.00;94274.81;5114070;28;20263;-58
2022/10/20 07:01:24;;;;;;;1999.90;999.90;;;;;;;10.85;100.00;94267.50;5114779;28;20168;-58
2022/10/20 07:03:54;;;;;;;1999.90;999.90;;;;;;;10.84;100.00;94271.41;5114549;28;20215;-58
2022/10/20 07:06:27;;;;;;;1999.90;999.90;;;;;;;10.81;100.00;94278.53;5114156;28;20178;-58
2022/10/20 07:08:55;;;;;;;1999.90;999.90;;;;;;;10.94;100.00;94264.91;5114086;28;20178;-58
2022/10/20 07:11:24;;;;;;;1999.90;999.90;;;;;;;10.78;100.00;94273.16;5114529;28;20181;-61
2022/10/20 07:13:52;;;;;;;1999.90;999.90;;;;;;;10.84;100.00;94266.75;5113586;28;20176;-59
2022/10/20 07:16:22;;;;;;;1999.90;999.90;;;;;;;10.94;100.00;94259.44;5113958;28;20229;-59
2022/10/20 07:18:48;;;;;;;1999.90;999.90;;;;;;;10.99;100.00;94261.63;5114713;28;20273;-59
2022/10/20 07:21:19;;;;;;;1999.90;999.90;;;;;;;11.08;100.00;94262.56;5113922;28;20183;-59
2022/10/20 07:23:48;;;;;;;1999.90;999.90;;;;;;;11.08;100.00;94264.50;5114263;28;20402;-59
2022/10/20 07:26:23;;;;;;;1999.90;999.90;;;;;;;11.12;100.00;94259.72;5113970;28;20210;-60
2022/10/20 07:28:51;;;;;;;1999.90;999.90;;;;;;;11.07;100.00;94266.47;5113785;28;20226;-62
2022/10/20 07:31:20;;;;;;;1999.90;999.90;;;;;;;11.07;100.00;94266.47;5113606;28;20179;-67
2022/10/20 07:33:46;;;;;;;1999.90;999.90;;;;;;;11.05;100.00;94265.38;5113797;28;20183;-66
2022/10/20 07:36:17;;;;;;;1999.90;999.90;;;;;;;11.03;100.00;94273.25;5113848;28;20175;-67
2022/10/20 07:38:43;;;;;;;1999.90;999.90;;;;;;;11.09;100.00;94271.50;5113828;28;20226;-67
2022/10/20 07:41:09;;;;;;;1999.90;999.90;;;;;;;11.08;100.00;94269.97;5113757;28;20179;-69
2022/10/20 07:43:36;;;;;;;1999.90;999.90;;;;;;;11.08;100.00;94267.25;5114521;28;20205;-68
2022/10/20 07:46:01;;;;;;;1999.90;999.90;;;;;;;11.12;100.00;94273.38;5114185;28;20172;-61
2022/10/20 07:48:27;;;;;;;1999.90;999.90;;;;;;;11.20;100.00;94271.97;5113549;28;20203;-61
2022/10/20 07:50:52;;;;;;;1999.90;999.90;;;;;;;11.22;100.00;94266.84;5113734;28;20186;-59
2022/10/20 07:53:17;;;;;;;1999.90;999.90;;;;;;;11.34;100.00;94261.41;5114167;28;20186;-60
2022/10/20 07:55:44;;;;;;;1999.90;999.90;;;;;;;11.39;100.00;94268.28;5114400;28;20173;-59
2022/10/20 07:58:10;;;;;;;1999.90;999.90;;;;;;;11.58;100.00;94259.13;5114490;28;20204;-60
2022/10/20 08:00:36;;;;;;;1999.90;999.90;;;;;;;11.66;100.00;94260.47;5113899;28;20217;-59
2022/10/20 08:03:02;;;;;;;1999.90;999.90;;;;;;;11.73;100.00;94265.72;5113405;28;20202;-59
2022/10/20 08:05:28;;;;;;;1999.90;999.90;;;;;;;11.67;100.00;94262.00;5114339;28;20195;-61
2022/10/20 08:07:54;;;;;;;1999.90;999.90;;;;;;;11.68;100.00;94263.50;5118173;28;20172;-59
2022/10/20 08:10:19;;;;;;;1999.90;999.90;;;;;;;11.86;100.00;94264.50;5117155;28;20210;-59
2022/10/20 08:12:44;;;;;;;1999.90;999.90;;;;;;;11.87;100.00;94276.22;5117941;28;20175;-58
2022/10/20 08:15:10;;;;;;;1999.90;999.90;;;;;;;11.77;100.00;94286.28;5117909;28;20262;-59
2022/10/20 08:17:35;;;;;;;1999.90;999.90;;;;;;;11.81;100.00;94288.91;5117902;28;20273;-59
2022/10/20 08:20:00;;;;;;;1999.90;999.90;;;;;;;11.72;100.00;94286.81;5117683;28;20183;-58
2022/10/20 08:22:26;;;;;;;1999.90;999.90;;;;;;;11.57;100.00;94301.31;5117224;28;20185;-58
2022/10/20 08:24:52;;;;;;;1999.90;999.90;;;;;;;11.66;100.00;94293.28;5117144;28;20176;-60
2022/10/20 08:27:18;;;;;;;1999.90;999.90;;;;;;;11.68;100.00;94296.34;5117255;28;20182;-68
2022/10/20 08:29:43;;;;;;;1999.90;999.90;;;;;;;11.81;100.00;94299.84;5117298;28;20261;-67
2022/10/20 08:32:11;;;;;;;1999.90;999.90;;;;;;;11.70;100.00;94319.34;5117127;28;20176;-68
2022/10/20 08:34:36;;;;;;;1999.90;999.90;;;;;;;11.52;100.00;94321.00;5117627;28;20172;-68
2022/10/20 08:37:02;;;;;;;1999.90;999.90;;;;;;;11.38;100.00;94322.19;5117150;28;20185;-68
2022/10/20 08:39:27;;;;;;;1999.90;999.90;;;;;;;11.59;100.00;94326.28;5116990;28;20183;-68
2022/10/20 08:41:53;;;;;;;1999.90;999.90;;;;;;;11.60;100.00;94328.56;5117497;28;20215;-62
2022/10/20 08:44:24;;;;;;;1999.90;999.90;;;;;;;11.65;100.00;94325.31;5116935;28;20207;-61
2022/10/20 08:46:49;;;;;;;1999.90;999.90;;;;;;;11.62;100.00;94325.44;5116962;28;20190;-64
2022/10/20 08:49:28;;;;;;;1999.90;999.90;;;;;;;11.65;100.00;94325.31;5116538;28;20180;-64
2022/10/20 08:51:54;;;;;;;1999.90;999.90;;;;;;;11.79;100.00;94330.38;5117094;28;20223;-63
2022/10/20 08:54:19;;;;;;;1999.90;999.90;;;;;;;11.51;100.00;94330.44;5116357;28;20172;-63
2022/10/20 08:56:45;;;;;;;1999.90;999.90;;;;;;;11.46;100.00;94328.22;5116826;28;20187;-65
2022/10/20 08:59:32;;;;;;;1999.90;999.90;;;;;;;11.65;100.00;94322.59;5116432;28;20271;-64
2022/10/20 09:01:57;;;;;;;1999.90;999.90;;;;;;;11.81;100.00;94329.94;5116764;28;20173;-61
2022/10/20 09:04:34;;;;;;;1999.90;999.90;;;;;;;11.69;100.00;94336.16;5116246;28;20206;-65
2022/10/20 09:07:08;;;;;;;1999.90;999.90;;;;;;;11.89;100.00;94328.50;5116841;28;20183;-65
2022/10/20 09:09:35;;;;;;;1999.90;999.90;;;;;;;12.03;100.00;94339.03;5116210;28;20171;-65
2022/10/20 09:12:09;;;;;;;1999.90;999.90;;;;;;;12.01;100.00;94346.91;5116462;28;20174;-65
2022/10/20 09:14:36;;;;;;;1999.90;999.90;;;;;;;12.15;100.00;94351.94;5116895;28;20171;-65
2022/10/20 09:17:03;;;;;;;1999.90;999.90;;;;;;;12.04;100.00;94365.19;5115832;28;20192;-67
2022/10/20 09:19:29;;;;;;;1999.90;999.90;;;;;;;12.35;100.00;94352.50;5115977;28;20266;-66
2022/10/20 09:22:04;;;;;;;1999.90;999.90;;;;;;;12.53;100.00;94366.38;5116443;28;20197;-66
2022/10/20 09:24:30;;;;;;;1999.90;999.90;;;;;;;12.28;100.00;94377.34;5115779;28;20250;-66
2022/10/20 09:27:14;;;;;;;1999.90;999.90;;;;;;;12.32;100.00;94378.75;5116077;28;20221;-68
2022/10/20 09:29:40;;;;;;;1999.90;999.90;;;;;;;12.26;100.00;94385.22;5115741;28;20243;-67
2022/10/20 09:32:18;;;;;;;1999.90;999.90;;;;;;;12.28;100.00;94402.00;5116296;28;20183;-67
2022/10/20 09:34:43;;;;;;;1999.90;999.90;;;;;;;12.25;100.00;94411.06;5115819;28;20173;-67
2022/10/20 09:37:09;;;;;;;1999.90;999.90;;;;;;;12.11;100.00;94427.91;5115729;28;20238;-61
2022/10/20 09:39:54;;;;;;;1999.90;999.90;;;;;;;12.19;100.00;94418.28;5115889;28;20181;-59
2022/10/20 09:42:26;;;;;;;1999.90;999.90;;;;;;;12.16;100.00;94425.41;5115545;28;20267;-61
2022/10/20 09:45:03;;;;;;;1999.90;999.90;;;;;;;12.58;100.00;94417.84;5115411;28;20167;-60
2022/10/20 09:47:29;;;;;;;1999.90;999.90;;;;;;;12.74;100.00;94421.22;5116359;28;20289;-61
2022/10/20 09:50:01;;;;;;;1999.90;999.90;;;;;;;12.86;100.00;94422.44;5115187;28;20203;-61
2022/10/20 09:52:30;;;;;;;1999.90;999.90;;;;;;;13.34;100.00;94419.25;5116452;28;20175;-61
2022/10/20 09:55:00;;;;;;;1999.90;999.90;;;;;;;13.54;100.00;94433.44;5116008;28;20215;-63
2022/10/20 09:57:26;;;;;;;1999.90;999.90;;;;;;;13.80;100.00;94429.34;5115431;28;20274;-60
2022/10/20 09:59:54;;;;;;;1999.90;999.90;;;;;;;14.42;100.00;94432.97;5115166;28;20203;-67
2022/10/20 10:02:20;;;;;;;1999.90;999.90;;;;;;;13.97;100.00;94471.88;5115285;28;20195;-68
2022/10/20 10:04:48;;;;;;;1999.90;999.90;;;;;;;14.15;100.00;94469.25;5114982;28;20200;-67
2022/10/20 10:07:26;;;;;;;1999.90;999.90;;;;;;;14.02;100.00;94479.53;5114963;28;20172;-67
2022/10/20 10:10:00;;;;;;;1999.90;999.90;;;;;;;14.13;100.00;94474.41;5115314;28;20285;-67
2022/10/20 10:12:27;;;;;;;1999.90;999.90;;;;;;;14.92;100.00;94463.53;5116320;28;20241;-68
2022/10/20 10:14:57;;;;;;;1999.90;999.90;;;;;;;15.56;100.00;94445.94;5115259;28;20229;-62
2022/10/20 10:17:29;;;;;;;1999.90;999.90;;;;;;;16.07;100.00;94457.84;5115536;28;20178;-59
2022/10/20 10:19:56;;;;;;;1999.90;999.90;;;;;;;15.76;100.00;94484.81;5115105;28;20259;-59
2022/10/20 10:22:21;;;;;;;1999.90;999.90;;;;;;;15.51;100.00;94498.84;5114719;28;20172;-59
2022/10/20 10:24:48;;;;;;;1999.90;999.90;;;;;;;15.61;100.00;94497.66;5114925;28;20182;-59
2022/10/20 10:27:29;;;;;;;1999.90;999.90;;;;;;;15.02;100.00;94506.34;5114558;28;20176;-59
2022/10/20 10:30:13;;;;;;;1999.90;999.90;;;;;;;14.76;100.00;94518.78;5114996;28;20241;-60
2022/10/20 10:32:43;;;;;;;1999.90;999.90;;;;;;;14.96;100.00;94508.16;5115366;28;20171;-58
2022/10/20 10:35:39;;;;;;;1999.90;999.90;;;;;;;15.04;100.00;94503.16;5115302;28;20179;-64
2022/10/20 10:38:08;;;;;;;1999.90;999.90;;;;;;;14.98;100.00;94504.94;5107874;28;20176;-63
2022/10/20 10:40:52;;;;;;;1999.90;999.90;;;;;;;15.68;100.00;94486.34;5115527;28;20180;-63
2022/10/20 10:43:32;;;;;;;1999.90;999.90;;;;;;;16.43;100.00;94470.84;5115078;28;20199;-63
2022/10/20 10:46:17;;;;;;;1999.90;999.90;;;;;;;16.71;100.00;94482.56;5114798;28;20266;-64
2022/10/20 10:49:18;;;;;;;1999.90;999.90;;;;;;;16.96;100.00;94487.66;5113685;28;20188;-64
2022/10/20 10:52:08;;;;;;;1999.90;999.90;;;;;;;17.27;100.00;94475.13;5114498;28;20296;-60
2022/10/20 10:54:50;;;;;;;1999.90;999.90;;;;;;;17.51;100.00;94486.19;5114317;28;20172;-61